Lawson, AR (71750)

12:42 PM CDT on October 01, 2014 (GMT -0500)
South Arkansas Regional At Goodwin | Change Station
CLOSE
Current Station
Airport
Location: El Dorado,
Elevation: 276 ft
Nearby Weather Stations

Elev 276 ft 33.22 °N, 92.81 °W | Updated -656 second ago

Partly Cloudy
Partly Cloudy
86 °F
Feels Like 86 °F
N
6
Wind Variable Wind from Variable

Today
High -- | Low -- °F
--% Chance of Precip.
Yesterday
High -- | Low -- °F
Precip. -- in
7:04 AM 6:54 PM
Waxing Crescent, 49% visible
Pressure 29.90 in
Visibility 10.0 miles
Clouds Clear
Heat Index 86 °F
Dew Point 62 °F
Humidity 44%
Rainfall 0.00 in
Snow Depth Not available.
UV 8 out of 12
Pollen 8.10 out of 12
Air Quality Not available.
Flu Activity Not available.
METAR KELD 301753Z AUTO VRB05KT 10SM CLR 30/17 A2991 RMK AO2 SLP124 T03000167 10306 20178 58013

More Conditions Fewer Conditions

Pressure 29.90 in
Visibility 10.0 miles
Clouds Clear
Heat Index 86 °F
Dew Point 62 °F
Humidity 44%
Rainfall 0.00 in
Snow Depth Not available.
UV 8 out of 12
Pollen 8.10 out of 12
Air Quality Not available.
Flu Activity Not available.
METAR KELD 301753Z AUTO VRB05KT 10SM CLR 30/17 A2991 RMK AO2 SLP124 T03000167 10306 20178 58013

More Conditions Fewer Conditions

10-Day Weather Forecast

Almanac

Astronomy

Oct. 01, 2014 Rise Set
Actual Time 7:04 AM CDT 6:54 PM CDT
Civil Twilight 6:39 AM CDT 7:19 PM CDT
Nautical Twilight 6:10 AM CDT 7:47 PM CDT
Astronomical Twilight 5:41 AM CDT 8:16 PM CDT
Moon 1:52 PM CDT No Moon Set
Length of Visible Light 12h 39m
Length of Day
11h 50m
Tomorrow will be 2m 2s shorter.
Waxing Crescent, 49% of the Moon is Illuminated
Today
Waxing Crescent
Oct 1
First Quarter
Oct 8
Full
Oct 15
Last Quarter
Oct 23
New

Today's Extremes

State Highs State Lows

Community

WunderPhotos

Upload Photos

1,758,001 photos uploaded!

WunderBlogs® & News

By Dr. Jeff Masters
Director of Meteorology, Weather Underground
By Kari Strenfel
Meteorologist, Weather Underground
By Christopher C. Burt
Weather Historian, Weather Underground
October 1, 2014
October 1, 2014
October 1, 2014

Nearby

Snow Depth

Station Depth Elevation
No new snow has been reported.

Earthquake Activity

City Distance Mag. Time & Date
No recent earthquake activity has been reported nearby.
Minimum magnitude displayed is 2.5.

Coastal Water Temperatures

Place Temperature
No Stations Reporting

Nearby Weather Stations